sensor_id;sensor_type;location;lat;lon;timestamp;P1;durP1;ratioP1;P2;durP2;ratioP2
24585;SDS011;12743;52.262;6.172;2022-12-29T00:01:57;5.65;;;2.30;;
24585;SDS011;12743;52.262;6.172;2022-12-29T00:04:23;4.27;;;2.00;;
24585;SDS011;12743;52.262;6.172;2022-12-29T00:06:50;4.93;;;2.05;;
24585;SDS011;12743;52.262;6.172;2022-12-29T00:09:18;4.65;;;2.13;;
24585;SDS011;12743;52.262;6.172;2022-12-29T00:11:44;5.50;;;2.20;;
24585;SDS011;12743;52.262;6.172;2022-12-29T00:14:11;5.65;;;2.00;;
24585;SDS011;12743;52.262;6.172;2022-12-29T00:16:57;4.53;;;1.90;;
24585;SDS011;12743;52.262;6.172;2022-12-29T00:19:23;5.28;;;2.30;;
24585;SDS011;12743;52.262;6.172;2022-12-29T00:22:09;4.97;;;2.42;;
24585;SDS011;12743;52.262;6.172;2022-12-29T00:24:55;5.13;;;2.20;;
24585;SDS011;12743;52.262;6.172;2022-12-29T00:27:31;5.05;;;2.40;;
24585;SDS011;12743;52.262;6.172;2022-12-29T00:30:18;4.23;;;1.70;;
24585;SDS011;12743;52.262;6.172;2022-12-29T00:35:57;5.68;;;2.00;;
24585;SDS011;12743;52.262;6.172;2022-12-29T00:38:55;4.88;;;1.92;;
24585;SDS011;12743;52.262;6.172;2022-12-29T00:41:44;4.40;;;1.95;;
24585;SDS011;12743;52.262;6.172;2022-12-29T00:44:29;5.43;;;1.90;;
24585;SDS011;12743;52.262;6.172;2022-12-29T00:46:55;6.15;;;1.73;;
24585;SDS011;12743;52.262;6.172;2022-12-29T00:49:22;5.45;;;2.15;;
24585;SDS011;12743;52.262;6.172;2022-12-29T00:52:04;3.55;;;1.80;;
24585;SDS011;12743;52.262;6.172;2022-12-29T00:54:33;5.63;;;2.20;;
24585;SDS011;12743;52.262;6.172;2022-12-29T00:57:02;5.43;;;1.93;;
24585;SDS011;12743;52.262;6.172;2022-12-29T00:59:29;4.30;;;1.88;;
24585;SDS011;12743;52.262;6.172;2022-12-29T01:01:56;4.68;;;1.90;;
24585;SDS011;12743;52.262;6.172;2022-12-29T01:04:24;4.68;;;2.08;;
24585;SDS011;12743;52.262;6.172;2022-12-29T01:06:52;5.28;;;1.90;;
24585;SDS011;12743;52.262;6.172;2022-12-29T01:09:19;4.57;;;1.80;;
24585;SDS011;12743;52.262;6.172;2022-12-29T01:12:05;4.65;;;1.88;;
24585;SDS011;12743;52.262;6.172;2022-12-29T01:14:33;5.25;;;1.90;;
24585;SDS011;12743;52.262;6.172;2022-12-29T01:17:01;6.13;;;2.13;;
24585;SDS011;12743;52.262;6.172;2022-12-29T01:19:28;4.57;;;1.65;;
24585;SDS011;12743;52.262;6.172;2022-12-29T01:21:55;4.60;;;1.60;;
24585;SDS011;12743;52.262;6.172;2022-12-29T01:24:21;3.20;;;1.45;;
24585;SDS011;12743;52.262;6.172;2022-12-29T01:26:48;3.80;;;1.58;;
24585;SDS011;12743;52.262;6.172;2022-12-29T01:29:15;5.50;;;1.58;;
24585;SDS011;12743;52.262;6.172;2022-12-29T01:31:44;4.75;;;1.60;;
24585;SDS011;12743;52.262;6.172;2022-12-29T01:34:11;3.37;;;1.20;;
24585;SDS011;12743;52.262;6.172;2022-12-29T01:36:38;3.13;;;1.10;;
24585;SDS011;12743;52.262;6.172;2022-12-29T01:39:04;4.43;;;1.13;;
24585;SDS011;12743;52.262;6.172;2022-12-29T01:41:31;4.20;;;1.17;;
24585;SDS011;12743;52.262;6.172;2022-12-29T01:44:00;4.03;;;1.10;;
24585;SDS011;12743;52.262;6.172;2022-12-29T01:51:35;3.53;;;1.08;;
24585;SDS011;12743;52.262;6.172;2022-12-29T01:54:07;3.03;;;0.95;;
24585;SDS011;12743;52.262;6.172;2022-12-29T01:56:37;3.83;;;1.23;;
24585;SDS011;12743;52.262;6.172;2022-12-29T01:59:08;3.70;;;0.97;;
24585;SDS011;12743;52.262;6.172;2022-12-29T02:01:38;3.75;;;1.10;;
24585;SDS011;12743;52.262;6.172;2022-12-29T02:04:05;3.72;;;1.40;;
24585;SDS011;12743;52.262;6.172;2022-12-29T02:06:33;4.03;;;1.50;;
24585;SDS011;12743;52.262;6.172;2022-12-29T02:09:06;4.60;;;1.50;;
24585;SDS011;12743;52.262;6.172;2022-12-29T02:11:32;3.83;;;0.97;;
24585;SDS011;12743;52.262;6.172;2022-12-29T02:14:01;3.53;;;0.73;;
24585;SDS011;12743;52.262;6.172;2022-12-29T02:19:50;2.95;;;0.60;;
24585;SDS011;12743;52.262;6.172;2022-12-29T02:22:33;2.15;;;0.52;;
24585;SDS011;12743;52.262;6.172;2022-12-29T02:31:05;2.65;;;0.60;;
24585;SDS011;12743;52.262;6.172;2022-12-29T02:37:09;3.67;;;0.98;;
24585;SDS011;12743;52.262;6.172;2022-12-29T02:42:59;3.95;;;0.95;;
24585;SDS011;12743;52.262;6.172;2022-12-29T02:45:26;3.40;;;0.73;;
24585;SDS011;12743;52.262;6.172;2022-12-29T02:50:49;2.03;;;0.60;;
24585;SDS011;12743;52.262;6.172;2022-12-29T02:53:24;2.83;;;0.70;;
24585;SDS011;12743;52.262;6.172;2022-12-29T02:56:11;2.47;;;0.73;;
24585;SDS011;12743;52.262;6.172;2022-12-29T02:58:37;2.53;;;0.60;;
24585;SDS011;12743;52.262;6.172;2022-12-29T03:04:00;3.03;;;0.35;;
24585;SDS011;12743;52.262;6.172;2022-12-29T03:09:43;2.83;;;0.30;;
24585;SDS011;12743;52.262;6.172;2022-12-29T03:12:30;2.05;;;0.30;;
24585;SDS011;12743;52.262;6.172;2022-12-29T03:15:26;3.60;;;0.20;;
24585;SDS011;12743;52.262;6.172;2022-12-29T03:18:22;1.55;;;0.20;;
24585;SDS011;12743;52.262;6.172;2022-12-29T03:20:55;3.87;;;0.20;;
24585;SDS011;12743;52.262;6.172;2022-12-29T03:23:26;3.55;;;0.28;;
24585;SDS011;12743;52.262;6.172;2022-12-29T03:25:56;3.88;;;0.25;;
24585;SDS011;12743;52.262;6.172;2022-12-29T03:28:31;3.25;;;0.20;;
24585;SDS011;12743;52.262;6.172;2022-12-29T03:31:02;3.00;;;0.40;;
24585;SDS011;12743;52.262;6.172;2022-12-29T03:33:31;2.47;;;0.20;;
24585;SDS011;12743;52.262;6.172;2022-12-29T03:36:02;3.70;;;0.30;;
24585;SDS011;12743;52.262;6.172;2022-12-29T03:38:35;1.67;;;0.30;;
24585;SDS011;12743;52.262;6.172;2022-12-29T03:41:08;2.78;;;0.20;;
24585;SDS011;12743;52.262;6.172;2022-12-29T03:43:37;3.55;;;0.30;;
24585;SDS011;12743;52.262;6.172;2022-12-29T03:46:04;2.73;;;0.30;;
24585;SDS011;12743;52.262;6.172;2022-12-29T03:48:31;3.30;;;0.60;;
24585;SDS011;12743;52.262;6.172;2022-12-29T03:50:59;2.90;;;0.45;;
24585;SDS011;12743;52.262;6.172;2022-12-29T03:53:26;3.17;;;0.25;;
24585;SDS011;12743;52.262;6.172;2022-12-29T03:55:53;2.85;;;0.30;;
24585;SDS011;12743;52.262;6.172;2022-12-29T03:58:21;1.53;;;0.20;;
24585;SDS011;12743;52.262;6.172;2022-12-29T04:00:59;2.53;;;0.20;;
24585;SDS011;12743;52.262;6.172;2022-12-29T04:03:26;3.72;;;0.20;;
24585;SDS011;12743;52.262;6.172;2022-12-29T04:05:53;1.08;;;0.20;;
24585;SDS011;12743;52.262;6.172;2022-12-29T04:08:20;2.65;;;0.30;;
24585;SDS011;12743;52.262;6.172;2022-12-29T04:10:50;1.60;;;0.20;;
24585;SDS011;12743;52.262;6.172;2022-12-29T04:13:19;4.50;;;0.30;;
24585;SDS011;12743;52.262;6.172;2022-12-29T04:15:46;4.65;;;0.52;;
24585;SDS011;12743;52.262;6.172;2022-12-29T04:18:13;3.00;;;0.30;;
24585;SDS011;12743;52.262;6.172;2022-12-29T04:20:40;4.68;;;0.32;;
24585;SDS011;12743;52.262;6.172;2022-12-29T04:23:33;1.23;;;0.20;;
24585;SDS011;12743;52.262;6.172;2022-12-29T04:26:03;3.08;;;0.30;;
24585;SDS011;12743;52.262;6.172;2022-12-29T04:28:37;1.52;;;0.40;;
24585;SDS011;12743;52.262;6.172;2022-12-29T04:31:15;1.58;;;0.22;;
24585;SDS011;12743;52.262;6.172;2022-12-29T04:33:44;2.22;;;0.40;;
24585;SDS011;12743;52.262;6.172;2022-12-29T04:36:11;4.17;;;0.40;;
24585;SDS011;12743;52.262;6.172;2022-12-29T04:38:38;3.45;;;0.30;;
24585;SDS011;12743;52.262;6.172;2022-12-29T04:41:05;3.80;;;0.35;;
24585;SDS011;12743;52.262;6.172;2022-12-29T04:43:34;5.63;;;0.30;;
24585;SDS011;12743;52.262;6.172;2022-12-29T04:46:21;1.67;;;0.22;;
24585;SDS011;12743;52.262;6.172;2022-12-29T04:48:55;4.53;;;0.33;;
24585;SDS011;12743;52.262;6.172;2022-12-29T04:51:29;4.88;;;0.30;;
24585;SDS011;12743;52.262;6.172;2022-12-29T04:53:55;2.83;;;0.40;;
24585;SDS011;12743;52.262;6.172;2022-12-29T04:56:24;3.70;;;0.45;;
24585;SDS011;12743;52.262;6.172;2022-12-29T04:58:50;4.15;;;0.40;;
24585;SDS011;12743;52.262;6.172;2022-12-29T05:01:19;3.90;;;0.57;;
24585;SDS011;12743;52.262;6.172;2022-12-29T05:03:46;4.75;;;0.40;;
24585;SDS011;12743;52.262;6.172;2022-12-29T05:06:13;5.15;;;0.68;;
24585;SDS011;12743;52.262;6.172;2022-12-29T05:08:41;4.10;;;0.30;;
24585;SDS011;12743;52.262;6.172;2022-12-29T05:11:08;2.38;;;0.40;;
24585;SDS011;12743;52.262;6.172;2022-12-29T05:13:35;5.37;;;0.40;;
24585;SDS011;12743;52.262;6.172;2022-12-29T05:16:03;3.67;;;0.73;;
24585;SDS011;12743;52.262;6.172;2022-12-29T05:18:29;2.75;;;0.47;;
24585;SDS011;12743;52.262;6.172;2022-12-29T05:20:57;6.00;;;0.50;;
24585;SDS011;12743;52.262;6.172;2022-12-29T05:23:24;7.47;;;1.17;;
24585;SDS011;12743;52.262;6.172;2022-12-29T05:25:55;4.50;;;1.03;;
24585;SDS011;12743;52.262;6.172;2022-12-29T05:28:40;4.85;;;0.40;;
24585;SDS011;12743;52.262;6.172;2022-12-29T05:31:14;8.57;;;1.20;;
24585;SDS011;12743;52.262;6.172;2022-12-29T05:33:41;6.35;;;0.50;;
24585;SDS011;12743;52.262;6.172;2022-12-29T05:36:08;8.68;;;0.65;;
24585;SDS011;12743;52.262;6.172;2022-12-29T05:38:40;12.93;;;1.20;;
24585;SDS011;12743;52.262;6.172;2022-12-29T05:41:07;6.10;;;0.60;;
24585;SDS011;12743;52.262;6.172;2022-12-29T05:44:04;9.73;;;0.60;;
24585;SDS011;12743;52.262;6.172;2022-12-29T05:47:02;11.43;;;1.10;;
24585;SDS011;12743;52.262;6.172;2022-12-29T05:49:49;7.03;;;0.70;;
24585;SDS011;12743;52.262;6.172;2022-12-29T05:52:28;7.37;;;0.50;;
24585;SDS011;12743;52.262;6.172;2022-12-29T05:54:55;7.45;;;0.90;;
24585;SDS011;12743;52.262;6.172;2022-12-29T05:57:24;6.70;;;0.65;;
24585;SDS011;12743;52.262;6.172;2022-12-29T06:00:00;7.28;;;0.85;;
24585;SDS011;12743;52.262;6.172;2022-12-29T06:02:39;9.15;;;1.30;;
24585;SDS011;12743;52.262;6.172;2022-12-29T06:05:07;9.27;;;1.33;;
24585;SDS011;12743;52.262;6.172;2022-12-29T06:07:35;8.18;;;0.70;;
24585;SDS011;12743;52.262;6.172;2022-12-29T06:10:04;8.70;;;0.68;;
24585;SDS011;12743;52.262;6.172;2022-12-29T06:12:42;4.25;;;0.40;;
24585;SDS011;12743;52.262;6.172;2022-12-29T06:15:09;7.07;;;0.50;;
24585;SDS011;12743;52.262;6.172;2022-12-29T06:17:38;5.87;;;0.57;;
24585;SDS011;12743;52.262;6.172;2022-12-29T06:20:05;7.15;;;0.60;;
24585;SDS011;12743;52.262;6.172;2022-12-29T06:22:33;5.93;;;0.38;;
24585;SDS011;12743;52.262;6.172;2022-12-29T06:25:00;10.13;;;0.73;;
24585;SDS011;12743;52.262;6.172;2022-12-29T06:27:32;6.25;;;0.52;;
24585;SDS011;12743;52.262;6.172;2022-12-29T06:29:59;7.53;;;1.00;;
24585;SDS011;12743;52.262;6.172;2022-12-29T06:32:26;6.55;;;0.50;;
24585;SDS011;12743;52.262;6.172;2022-12-29T06:34:59;6.63;;;0.50;;
24585;SDS011;12743;52.262;6.172;2022-12-29T06:37:25;7.03;;;0.45;;
24585;SDS011;12743;52.262;6.172;2022-12-29T06:39:52;5.75;;;0.50;;
24585;SDS011;12743;52.262;6.172;2022-12-29T06:42:19;8.20;;;0.63;;
24585;SDS011;12743;52.262;6.172;2022-12-29T06:45:06;5.57;;;0.60;;
24585;SDS011;12743;52.262;6.172;2022-12-29T06:47:34;3.22;;;0.40;;
24585;SDS011;12743;52.262;6.172;2022-12-29T06:50:01;4.15;;;0.52;;
24585;SDS011;12743;52.262;6.172;2022-12-29T06:52:28;7.40;;;0.73;;
24585;SDS011;12743;52.262;6.172;2022-12-29T06:54:55;4.90;;;0.70;;
24585;SDS011;12743;52.262;6.172;2022-12-29T06:57:21;7.43;;;0.70;;
24585;SDS011;12743;52.262;6.172;2022-12-29T06:59:48;7.07;;;0.68;;
24585;SDS011;12743;52.262;6.172;2022-12-29T07:02:14;6.03;;;0.52;;
24585;SDS011;12743;52.262;6.172;2022-12-29T07:04:44;7.38;;;0.70;;
24585;SDS011;12743;52.262;6.172;2022-12-29T07:07:11;8.87;;;0.63;;
24585;SDS011;12743;52.262;6.172;2022-12-29T07:09:37;6.15;;;0.50;;
24585;SDS011;12743;52.262;6.172;2022-12-29T07:12:04;6.15;;;0.85;;
24585;SDS011;12743;52.262;6.172;2022-12-29T07:14:31;5.60;;;0.50;;
24585;SDS011;12743;52.262;6.172;2022-12-29T07:17:05;8.82;;;0.93;;
24585;SDS011;12743;52.262;6.172;2022-12-29T07:19:33;6.70;;;0.77;;
24585;SDS011;12743;52.262;6.172;2022-12-29T07:21:59;8.20;;;0.40;;
24585;SDS011;12743;52.262;6.172;2022-12-29T07:24:26;6.72;;;0.45;;
24585;SDS011;12743;52.262;6.172;2022-12-29T07:26:53;7.93;;;0.93;;
24585;SDS011;12743;52.262;6.172;2022-12-29T07:29:19;6.10;;;0.73;;
24585;SDS011;12743;52.262;6.172;2022-12-29T07:31:46;7.07;;;0.80;;
24585;SDS011;12743;52.262;6.172;2022-12-29T07:34:12;6.88;;;0.60;;
24585;SDS011;12743;52.262;6.172;2022-12-29T07:36:39;9.43;;;0.73;;
24585;SDS011;12743;52.262;6.172;2022-12-29T07:39:05;6.78;;;0.77;;
24585;SDS011;12743;52.262;6.172;2022-12-29T07:41:32;6.57;;;0.57;;
24585;SDS011;12743;52.262;6.172;2022-12-29T07:44:01;8.17;;;0.90;;
24585;SDS011;12743;52.262;6.172;2022-12-29T07:46:56;8.52;;;0.80;;
24585;SDS011;12743;52.262;6.172;2022-12-29T07:49:24;7.43;;;0.88;;
24585;SDS011;12743;52.262;6.172;2022-12-29T07:51:51;8.93;;;0.77;;
24585;SDS011;12743;52.262;6.172;2022-12-29T07:54:18;8.02;;;0.90;;
24585;SDS011;12743;52.262;6.172;2022-12-29T07:56:44;9.07;;;0.80;;
24585;SDS011;12743;52.262;6.172;2022-12-29T07:59:11;9.52;;;0.68;;
24585;SDS011;12743;52.262;6.172;2022-12-29T08:01:41;6.53;;;0.50;;
24585;SDS011;12743;52.262;6.172;2022-12-29T08:04:07;8.10;;;0.82;;
24585;SDS011;12743;52.262;6.172;2022-12-29T08:06:34;6.32;;;0.85;;
24585;SDS011;12743;52.262;6.172;2022-12-29T08:09:01;9.60;;;0.93;;
24585;SDS011;12743;52.262;6.172;2022-12-29T08:11:40;7.75;;;1.13;;
24585;SDS011;12743;52.262;6.172;2022-12-29T08:14:06;7.82;;;0.88;;
24585;SDS011;12743;52.262;6.172;2022-12-29T08:16:33;7.57;;;0.70;;
24585;SDS011;12743;52.262;6.172;2022-12-29T08:19:00;5.45;;;0.50;;
24585;SDS011;12743;52.262;6.172;2022-12-29T08:21:27;7.00;;;0.80;;
24585;SDS011;12743;52.262;6.172;2022-12-29T08:23:54;7.00;;;0.88;;
24585;SDS011;12743;52.262;6.172;2022-12-29T08:26:21;7.70;;;0.50;;
24585;SDS011;12743;52.262;6.172;2022-12-29T08:28:51;3.83;;;0.60;;
24585;SDS011;12743;52.262;6.172;2022-12-29T08:31:18;10.15;;;1.02;;
24585;SDS011;12743;52.262;6.172;2022-12-29T08:33:45;7.20;;;0.90;;
24585;SDS011;12743;52.262;6.172;2022-12-29T08:36:11;6.03;;;0.95;;
24585;SDS011;12743;52.262;6.172;2022-12-29T08:38:38;6.25;;;0.98;;
24585;SDS011;12743;52.262;6.172;2022-12-29T08:41:04;7.88;;;0.93;;
24585;SDS011;12743;52.262;6.172;2022-12-29T08:43:31;6.82;;;0.85;;
24585;SDS011;12743;52.262;6.172;2022-12-29T08:45:58;6.90;;;0.80;;
24585;SDS011;12743;52.262;6.172;2022-12-29T08:48:25;8.48;;;1.10;;
24585;SDS011;12743;52.262;6.172;2022-12-29T08:50:52;9.20;;;1.02;;
24585;SDS011;12743;52.262;6.172;2022-12-29T08:53:19;5.65;;;0.90;;
24585;SDS011;12743;52.262;6.172;2022-12-29T08:55:46;8.43;;;0.90;;
24585;SDS011;12743;52.262;6.172;2022-12-29T08:58:14;7.63;;;0.70;;
24585;SDS011;12743;52.262;6.172;2022-12-29T09:00:43;7.30;;;0.70;;
24585;SDS011;12743;52.262;6.172;2022-12-29T09:03:10;12.10;;;1.13;;
24585;SDS011;12743;52.262;6.172;2022-12-29T09:05:37;11.93;;;1.05;;
24585;SDS011;12743;52.262;6.172;2022-12-29T09:08:03;7.88;;;0.60;;
24585;SDS011;12743;52.262;6.172;2022-12-29T09:10:30;11.00;;;1.00;;
24585;SDS011;12743;52.262;6.172;2022-12-29T09:12:57;6.63;;;0.95;;
24585;SDS011;12743;52.262;6.172;2022-12-29T09:15:24;9.93;;;0.80;;
24585;SDS011;12743;52.262;6.172;2022-12-29T09:17:50;9.52;;;0.80;;
24585;SDS011;12743;52.262;6.172;2022-12-29T09:20:18;6.93;;;0.60;;
24585;SDS011;12743;52.262;6.172;2022-12-29T09:22:46;15.50;;;1.47;;
24585;SDS011;12743;52.262;6.172;2022-12-29T09:25:13;8.52;;;0.75;;
24585;SDS011;12743;52.262;6.172;2022-12-29T09:27:39;8.63;;;0.60;;
24585;SDS011;12743;52.262;6.172;2022-12-29T09:30:08;8.63;;;0.57;;
24585;SDS011;12743;52.262;6.172;2022-12-29T09:32:36;6.15;;;0.50;;
24585;SDS011;12743;52.262;6.172;2022-12-29T09:35:10;9.70;;;1.03;;
24585;SDS011;12743;52.262;6.172;2022-12-29T09:37:37;7.82;;;0.75;;
24585;SDS011;12743;52.262;6.172;2022-12-29T09:40:04;8.38;;;0.73;;
24585;SDS011;12743;52.262;6.172;2022-12-29T09:42:32;10.02;;;0.73;;
24585;SDS011;12743;52.262;6.172;2022-12-29T09:45:15;10.20;;;1.10;;
24585;SDS011;12743;52.262;6.172;2022-12-29T09:47:46;7.23;;;0.60;;
24585;SDS011;12743;52.262;6.172;2022-12-29T09:52:55;12.93;;;0.82;;
24585;SDS011;12743;52.262;6.172;2022-12-29T09:58:12;7.20;;;0.75;;
24585;SDS011;12743;52.262;6.172;2022-12-29T10:00:58;12.33;;;1.13;;
24585;SDS011;12743;52.262;6.172;2022-12-29T10:03:35;10.05;;;0.95;;
24585;SDS011;12743;52.262;6.172;2022-12-29T10:20:47;10.13;;;1.48;;
24585;SDS011;12743;52.262;6.172;2022-12-29T10:26:12;9.63;;;1.00;;
24585;SDS011;12743;52.262;6.172;2022-12-29T10:28:43;10.37;;;0.97;;
24585;SDS011;12743;52.262;6.172;2022-12-29T10:31:17;10.32;;;0.95;;
24585;SDS011;12743;52.262;6.172;2022-12-29T10:33:58;8.13;;;0.95;;
24585;SDS011;12743;52.262;6.172;2022-12-29T10:39:06;7.20;;;0.70;;
24585;SDS011;12743;52.262;6.172;2022-12-29T10:41:44;13.17;;;1.20;;
24585;SDS011;12743;52.262;6.172;2022-12-29T10:44:16;6.72;;;1.40;;
24585;SDS011;12743;52.262;6.172;2022-12-29T10:46:44;9.85;;;0.80;;
24585;SDS011;12743;52.262;6.172;2022-12-29T10:49:20;8.63;;;0.80;;
24585;SDS011;12743;52.262;6.172;2022-12-29T10:51:48;6.18;;;0.90;;
24585;SDS011;12743;52.262;6.172;2022-12-29T10:54:19;7.93;;;0.80;;
24585;SDS011;12743;52.262;6.172;2022-12-29T10:56:50;7.85;;;0.98;;
24585;SDS011;12743;52.262;6.172;2022-12-29T10:59:21;10.38;;;1.00;;
24585;SDS011;12743;52.262;6.172;2022-12-29T11:07:09;5.67;;;0.70;;
24585;SDS011;12743;52.262;6.172;2022-12-29T11:09:41;5.72;;;0.93;;
24585;SDS011;12743;52.262;6.172;2022-12-29T11:12:26;6.75;;;0.70;;
24585;SDS011;12743;52.262;6.172;2022-12-29T11:17:53;7.95;;;1.02;;
24585;SDS011;12743;52.262;6.172;2022-12-29T11:20:27;7.03;;;1.17;;
24585;SDS011;12743;52.262;6.172;2022-12-29T11:23:23;10.05;;;0.95;;
24585;SDS011;12743;52.262;6.172;2022-12-29T11:26:17;10.30;;;1.10;;
24585;SDS011;12743;52.262;6.172;2022-12-29T11:31:47;5.35;;;1.63;;
24585;SDS011;12743;52.262;6.172;2022-12-29T11:34:20;7.70;;;1.23;;
24585;SDS011;12743;52.262;6.172;2022-12-29T11:36:47;9.73;;;1.20;;
24585;SDS011;12743;52.262;6.172;2022-12-29T11:39:23;7.50;;;1.42;;
24585;SDS011;12743;52.262;6.172;2022-12-29T11:42:03;9.13;;;1.63;;
24585;SDS011;12743;52.262;6.172;2022-12-29T11:44:32;10.93;;;1.70;;
24585;SDS011;12743;52.262;6.172;2022-12-29T11:47:03;10.27;;;2.00;;
24585;SDS011;12743;52.262;6.172;2022-12-29T11:49:31;11.05;;;1.95;;
24585;SDS011;12743;52.262;6.172;2022-12-29T11:51:58;13.95;;;2.55;;
24585;SDS011;12743;52.262;6.172;2022-12-29T11:54:27;12.30;;;1.50;;
24585;SDS011;12743;52.262;6.172;2022-12-29T11:56:57;13.27;;;2.47;;
24585;SDS011;12743;52.262;6.172;2022-12-29T12:01:57;12.93;;;2.00;;
24585;SDS011;12743;52.262;6.172;2022-12-29T12:04:26;11.95;;;1.65;;
24585;SDS011;12743;52.262;6.172;2022-12-29T12:07:18;12.32;;;2.25;;
24585;SDS011;12743;52.262;6.172;2022-12-29T12:09:51;12.55;;;2.97;;
24585;SDS011;12743;52.262;6.172;2022-12-29T12:12:31;8.80;;;2.00;;
24585;SDS011;12743;52.262;6.172;2022-12-29T12:15:24;12.43;;;2.00;;
24585;SDS011;12743;52.262;6.172;2022-12-29T12:18:09;12.10;;;1.70;;
24585;SDS011;12743;52.262;6.172;2022-12-29T12:20:50;14.10;;;2.30;;
24585;SDS011;12743;52.262;6.172;2022-12-29T12:26:40;13.20;;;2.30;;
24585;SDS011;12743;52.262;6.172;2022-12-29T12:32:17;14.07;;;2.00;;
24585;SDS011;12743;52.262;6.172;2022-12-29T12:34:49;15.80;;;2.60;;
24585;SDS011;12743;52.262;6.172;2022-12-29T12:46:22;8.63;;;1.30;;
24585;SDS011;12743;52.262;6.172;2022-12-29T12:49:17;10.52;;;1.98;;
24585;SDS011;12743;52.262;6.172;2022-12-29T12:55:18;10.87;;;1.73;;
24585;SDS011;12743;52.262;6.172;2022-12-29T13:06:18;10.02;;;2.20;;
24585;SDS011;12743;52.262;6.172;2022-12-29T13:11:55;12.73;;;2.88;;
24585;SDS011;12743;52.262;6.172;2022-12-29T13:14:37;12.93;;;2.47;;
24585;SDS011;12743;52.262;6.172;2022-12-29T13:17:18;17.23;;;2.20;;
24585;SDS011;12743;52.262;6.172;2022-12-29T13:20:16;14.35;;;2.67;;
24585;SDS011;12743;52.262;6.172;2022-12-29T13:23:00;13.70;;;2.40;;
24585;SDS011;12743;52.262;6.172;2022-12-29T13:25:44;10.55;;;1.67;;
24585;SDS011;12743;52.262;6.172;2022-12-29T13:31:23;14.15;;;1.95;;
24585;SDS011;12743;52.262;6.172;2022-12-29T13:36:40;12.90;;;2.30;;
24585;SDS011;12743;52.262;6.172;2022-12-29T13:39:12;11.48;;;2.30;;
24585;SDS011;12743;52.262;6.172;2022-12-29T13:41:53;13.98;;;2.53;;
24585;SDS011;12743;52.262;6.172;2022-12-29T13:44:22;16.83;;;2.45;;
24585;SDS011;12743;52.262;6.172;2022-12-29T13:47:04;10.85;;;2.72;;
24585;SDS011;12743;52.262;6.172;2022-12-29T13:49:46;16.10;;;2.57;;
24585;SDS011;12743;52.262;6.172;2022-12-29T13:52:27;10.85;;;2.15;;
24585;SDS011;12743;52.262;6.172;2022-12-29T13:57:48;11.05;;;2.35;;
24585;SDS011;12743;52.262;6.172;2022-12-29T14:00:21;14.90;;;2.47;;
24585;SDS011;12743;52.262;6.172;2022-12-29T14:03:02;11.10;;;2.30;;
24585;SDS011;12743;52.262;6.172;2022-12-29T14:08:45;12.63;;;2.72;;
24585;SDS011;12743;52.262;6.172;2022-12-29T14:11:14;13.00;;;2.72;;
24585;SDS011;12743;52.262;6.172;2022-12-29T14:13:43;17.27;;;2.90;;
24585;SDS011;12743;52.262;6.172;2022-12-29T14:16:23;18.27;;;2.70;;
24585;SDS011;12743;52.262;6.172;2022-12-29T14:18:53;12.50;;;2.65;;
24585;SDS011;12743;52.262;6.172;2022-12-29T14:21:23;7.57;;;1.90;;
24585;SDS011;12743;52.262;6.172;2022-12-29T14:24:02;14.55;;;2.42;;
24585;SDS011;12743;52.262;6.172;2022-12-29T14:27:01;10.25;;;2.20;;
24585;SDS011;12743;52.262;6.172;2022-12-29T14:29:48;6.97;;;1.47;;
24585;SDS011;12743;52.262;6.172;2022-12-29T14:34:58;12.23;;;2.70;;
24585;SDS011;12743;52.262;6.172;2022-12-29T14:37:30;13.15;;;3.80;;
24585;SDS011;12743;52.262;6.172;2022-12-29T14:42:45;11.50;;;2.47;;
24585;SDS011;12743;52.262;6.172;2022-12-29T14:47:40;14.52;;;2.50;;
24585;SDS011;12743;52.262;6.172;2022-12-29T14:50:16;13.82;;;2.10;;
24585;SDS011;12743;52.262;6.172;2022-12-29T14:52:47;12.15;;;2.03;;
24585;SDS011;12743;52.262;6.172;2022-12-29T14:55:41;14.30;;;2.17;;
24585;SDS011;12743;52.262;6.172;2022-12-29T14:58:20;10.98;;;1.73;;
24585;SDS011;12743;52.262;6.172;2022-12-29T15:00:52;12.45;;;1.98;;
24585;SDS011;12743;52.262;6.172;2022-12-29T15:06:18;9.68;;;1.52;;
24585;SDS011;12743;52.262;6.172;2022-12-29T15:11:47;7.15;;;1.10;;
24585;SDS011;12743;52.262;6.172;2022-12-29T15:16:57;9.27;;;0.85;;
24585;SDS011;12743;52.262;6.172;2022-12-29T15:19:24;9.55;;;1.75;;
24585;SDS011;12743;52.262;6.172;2022-12-29T15:21:52;4.27;;;0.50;;
24585;SDS011;12743;52.262;6.172;2022-12-29T15:24:20;6.80;;;0.75;;
24585;SDS011;12743;52.262;6.172;2022-12-29T15:26:47;6.32;;;0.60;;
24585;SDS011;12743;52.262;6.172;2022-12-29T15:29:37;6.85;;;0.70;;
24585;SDS011;12743;52.262;6.172;2022-12-29T15:34:41;6.80;;;0.77;;
24585;SDS011;12743;52.262;6.172;2022-12-29T15:37:08;8.35;;;1.13;;
24585;SDS011;12743;52.262;6.172;2022-12-29T15:39:35;4.97;;;0.85;;
24585;SDS011;12743;52.262;6.172;2022-12-29T15:42:46;8.15;;;0.90;;
24585;SDS011;12743;52.262;6.172;2022-12-29T15:44:56;4.70;;;0.80;;
24585;SDS011;12743;52.262;6.172;2022-12-29T15:47:35;9.80;;;1.40;;
24585;SDS011;12743;52.262;6.172;2022-12-29T15:52:34;6.40;;;1.60;;
24585;SDS011;12743;52.262;6.172;2022-12-29T15:55:01;8.75;;;1.75;;
24585;SDS011;12743;52.262;6.172;2022-12-29T15:57:36;9.45;;;1.77;;
24585;SDS011;12743;52.262;6.172;2022-12-29T16:00:21;7.13;;;2.20;;
24585;SDS011;12743;52.262;6.172;2022-12-29T16:02:52;11.40;;;2.50;;
24585;SDS011;12743;52.262;6.172;2022-12-29T16:05:21;11.73;;;2.60;;
24585;SDS011;12743;52.262;6.172;2022-12-29T16:07:51;8.30;;;1.88;;
24585;SDS011;12743;52.262;6.172;2022-12-29T16:10:38;11.75;;;2.45;;
24585;SDS011;12743;52.262;6.172;2022-12-29T16:16:09;8.18;;;2.22;;
24585;SDS011;12743;52.262;6.172;2022-12-29T16:18:43;9.75;;;2.08;;
24585;SDS011;12743;52.262;6.172;2022-12-29T16:21:18;12.00;;;2.30;;
24585;SDS011;12743;52.262;6.172;2022-12-29T16:23:48;12.77;;;3.00;;
24585;SDS011;12743;52.262;6.172;2022-12-29T16:26:18;9.27;;;2.30;;
24585;SDS011;12743;52.262;6.172;2022-12-29T16:28:47;8.70;;;1.90;;
24585;SDS011;12743;52.262;6.172;2022-12-29T16:31:17;11.88;;;3.53;;
24585;SDS011;12743;52.262;6.172;2022-12-29T16:33:48;12.90;;;2.38;;
24585;SDS011;12743;52.262;6.172;2022-12-29T16:36:24;8.88;;;2.40;;
24585;SDS011;12743;52.262;6.172;2022-12-29T16:39:04;13.13;;;3.00;;
24585;SDS011;12743;52.262;6.172;2022-12-29T16:41:35;8.63;;;2.35;;
24585;SDS011;12743;52.262;6.172;2022-12-29T16:49:24;9.13;;;1.85;;
24585;SDS011;12743;52.262;6.172;2022-12-29T16:51:52;14.00;;;2.03;;
24585;SDS011;12743;52.262;6.172;2022-12-29T16:54:24;9.60;;;2.00;;
24585;SDS011;12743;52.262;6.172;2022-12-29T16:56:57;11.07;;;2.17;;
24585;SDS011;12743;52.262;6.172;2022-12-29T16:59:32;8.25;;;2.33;;
24585;SDS011;12743;52.262;6.172;2022-12-29T17:02:01;8.30;;;1.90;;
24585;SDS011;12743;52.262;6.172;2022-12-29T17:04:32;11.13;;;2.20;;
24585;SDS011;12743;52.262;6.172;2022-12-29T17:06:59;11.13;;;2.28;;
24585;SDS011;12743;52.262;6.172;2022-12-29T17:09:26;10.68;;;1.92;;
24585;SDS011;12743;52.262;6.172;2022-12-29T17:11:55;12.05;;;1.92;;
24585;SDS011;12743;52.262;6.172;2022-12-29T17:17:29;5.53;;;1.03;;
24585;SDS011;12743;52.262;6.172;2022-12-29T17:20:05;7.97;;;1.25;;
24585;SDS011;12743;52.262;6.172;2022-12-29T17:22:39;9.27;;;1.48;;
24585;SDS011;12743;52.262;6.172;2022-12-29T17:25:06;6.97;;;1.50;;
24585;SDS011;12743;52.262;6.172;2022-12-29T17:30:13;6.47;;;1.13;;
24585;SDS011;12743;52.262;6.172;2022-12-29T17:32:42;8.15;;;1.67;;
24585;SDS011;12743;52.262;6.172;2022-12-29T17:35:17;8.65;;;1.05;;
24585;SDS011;12743;52.262;6.172;2022-12-29T17:37:45;6.45;;;1.00;;
24585;SDS011;12743;52.262;6.172;2022-12-29T17:40:14;12.35;;;1.15;;
24585;SDS011;12743;52.262;6.172;2022-12-29T17:42:47;10.13;;;1.87;;
24585;SDS011;12743;52.262;6.172;2022-12-29T17:45:22;6.13;;;0.70;;